Time;durP1;ratioP1;P1;durP2;ratioP2;P2;SDS_P1;SDS_P2;PMS_P1;PMS_P2;Temp;Humidity;BMP_temperature;BMP_pressure;BME280_temperature;BME280_humidity;BME280_pressure;Samples;Min_cycle;Max_cycle;Signal;HPM_P1;HPM_P2
2024/02/06 00:00:37;;;;;;;18.15;10.13;;;;;;;9.70;91.68;101826.56;5065127;28;20061;-61
2024/02/06 00:03:04;;;;;;;19.48;10.70;;;;;;;9.61;92.20;101822.72;5049689;28;20057;-61
2024/02/06 00:05:31;;;;;;;18.00;10.25;;;;;;;9.63;91.88;101820.53;5048537;28;20052;-61
2024/02/06 00:07:59;;;;;;;21.83;10.27;;;;;;;9.90;91.35;101804.47;5031386;28;20057;-62
2024/02/06 00:10:26;;;;;;;23.85;10.63;;;;;;;9.77;90.87;101808.66;5012052;28;20072;-61
2024/02/06 00:12:54;;;;;;;24.08;11.05;;;;;;;9.45;91.89;101807.41;5012958;28;20064;-60
2024/02/06 00:15:21;;;;;;;19.58;10.05;;;;;;;9.67;92.11;101813.38;5031134;28;20056;-61
2024/02/06 00:17:49;;;;;;;19.02;10.15;;;;;;;9.57;91.81;101816.16;5012842;28;20053;-61
2024/02/06 00:20:19;;;;;;;19.40;9.75;;;;;;;9.58;91.81;101809.56;5029975;28;20049;-62
2024/02/06 00:22:47;;;;;;;19.15;10.02;;;;;;;9.72;92.28;101808.69;5029447;28;20057;-62
2024/02/06 00:25:14;;;;;;;20.92;9.95;;;;;;;9.82;91.86;101811.38;5044613;28;20080;-60
2024/02/06 00:27:42;;;;;;;20.05;9.77;;;;;;;9.63;92.48;101807.63;4991993;28;20061;-62
2024/02/06 00:30:10;;;;;;;19.25;10.30;;;;;;;9.63;91.84;101799.38;5010549;28;20050;-61
2024/02/06 00:32:38;;;;;;;22.98;9.73;;;;;;;9.64;92.24;101800.19;5012715;28;20109;-61
2024/02/06 00:35:06;;;;;;;22.15;10.48;;;;;;;9.76;92.47;101796.00;5029307;28;20065;-60
2024/02/06 00:37:36;;;;;;;22.85;11.40;;;;;;;9.67;92.08;101800.47;5010967;28;20057;-60
2024/02/06 00:40:04;;;;;;;22.80;10.95;;;;;;;9.70;92.84;101799.06;5008855;28;20061;-60
2024/02/06 00:42:32;;;;;;;25.02;10.88;;;;;;;9.80;91.87;101799.00;5009373;28;20748;-61
2024/02/06 00:44:59;;;;;;;19.58;10.40;;;;;;;9.72;91.61;101792.19;5007407;28;20053;-61
2024/02/06 00:47:27;;;;;;;23.13;11.23;;;;;;;9.79;91.61;101789.13;4991427;28;20058;-61
2024/02/06 00:49:54;;;;;;;19.33;10.70;;;;;;;9.82;91.34;101783.03;4990964;28;20065;-61
2024/02/06 00:52:22;;;;;;;24.17;11.63;;;;;;;9.69;91.56;101781.72;5023266;28;20069;-61
2024/02/06 00:54:49;;;;;;;19.13;9.88;;;;;;;9.74;92.16;101780.88;4990498;28;20054;-61
2024/02/06 00:57:16;;;;;;;19.95;10.27;;;;;;;9.50;92.83;101769.69;5023680;28;20136;-61
2024/02/06 00:59:43;;;;;;;20.95;10.73;;;;;;;9.46;93.30;101773.28;4991479;28;20053;-61
2024/02/06 01:02:11;;;;;;;20.00;11.65;;;;;;;9.73;93.20;101771.81;5008472;28;20509;-61
2024/02/06 01:04:39;;;;;;;18.65;11.18;;;;;;;9.72;92.64;101764.66;5008447;28;20060;-61
2024/02/06 01:07:06;;;;;;;19.80;10.52;;;;;;;9.79;91.97;101759.69;5008485;28;20465;-61
2024/02/06 01:09:33;;;;;;;19.10;11.07;;;;;;;9.80;91.97;101760.47;5008862;28;20052;-60
2024/02/06 01:12:01;;;;;;;22.52;11.85;;;;;;;9.69;92.37;101754.19;4994219;28;20054;-61
2024/02/06 01:14:28;;;;;;;22.80;11.68;;;;;;;9.54;92.43;101756.19;4987905;28;20057;-61
2024/02/06 01:16:56;;;;;;;25.05;11.88;;;;;;;9.52;93.28;101766.69;4971679;28;20053;-61
2024/02/06 01:19:23;;;;;;;19.48;11.75;;;;;;;9.55;93.47;101752.38;4989359;28;20050;-61
2024/02/06 01:21:50;;;;;;;22.73;12.32;;;;;;;9.70;93.32;101757.78;4976317;28;20078;-62
2024/02/06 01:24:18;;;;;;;20.77;11.20;;;;;;;9.65;93.56;101761.41;5003055;28;20050;-61
2024/02/06 01:26:46;;;;;;;25.10;12.30;;;;;;;9.52;93.73;101745.47;4972443;28;20054;-61
2024/02/06 01:29:13;;;;;;;28.02;12.43;;;;;;;9.46;94.32;101734.78;4989707;28;20550;-61
2024/02/06 01:31:41;;;;;;;25.48;12.80;;;;;;;9.75;93.24;101725.56;5005928;28;20604;-61
2024/02/06 01:34:08;;;;;;;20.33;11.95;;;;;;;9.61;92.98;101724.53;5031018;28;20064;-60
2024/02/06 01:36:36;;;;;;;23.48;12.40;;;;;;;9.54;94.14;101725.94;5025212;28;20865;-61
2024/02/06 01:39:04;;;;;;;23.35;12.13;;;;;;;9.70;93.43;101722.03;5015814;28;20052;-61
2024/02/06 01:41:31;;;;;;;21.38;11.13;;;;;;;9.79;92.51;101709.31;5047872;28;20057;-62
2024/02/06 01:43:59;;;;;;;20.40;12.45;;;;;;;9.69;93.57;101706.63;5028893;28;20087;-60
2024/02/06 01:46:27;;;;;;;27.00;12.45;;;;;;;9.75;92.95;101708.25;4994790;28;20057;-61
2024/02/06 01:48:54;;;;;;;25.33;12.80;;;;;;;9.79;92.98;101720.31;5042437;28;20051;-62
2024/02/06 01:51:24;;;;;;;25.88;13.13;;;;;;;9.74;93.39;101714.84;4977461;28;20070;-60
2024/02/06 01:53:55;;;;;;;22.00;12.63;;;;;;;9.76;92.90;101721.72;5011106;28;20523;-61
2024/02/06 01:56:23;;;;;;;25.30;12.38;;;;;;;9.77;92.68;101715.13;5028249;28;20481;-61
2024/02/06 01:58:52;;;;;;;25.50;12.95;;;;;;;9.60;93.56;101711.91;5043581;28;20064;-61
2024/02/06 02:01:22;;;;;;;24.08;12.88;;;;;;;9.82;93.00;101715.09;5011503;28;20053;-61
2024/02/06 02:03:52;;;;;;;25.98;13.07;;;;;;;9.74;92.96;101721.19;5011039;28;20756;-61
2024/02/06 02:06:21;;;;;;;24.70;14.07;;;;;;;9.82;92.82;101717.00;5029553;28;20049;-65
2024/02/06 02:08:50;;;;;;;24.60;13.30;;;;;;;9.89;92.63;101707.34;5011538;28;20057;-61
2024/02/06 02:11:17;;;;;;;25.47;12.63;;;;;;;9.85;92.37;101714.50;5029031;28;20068;-61
2024/02/06 02:13:46;;;;;;;23.85;14.23;;;;;;;9.81;92.89;101705.19;5010317;28;20057;-61
2024/02/06 02:16:15;;;;;;;27.48;14.45;;;;;;;9.73;93.34;101708.53;5010243;28;20638;-62
2024/02/06 02:18:42;;;;;;;27.88;14.45;;;;;;;9.78;92.96;101705.75;5028740;28;20045;-62
2024/02/06 02:21:11;;;;;;;29.00;14.07;;;;;;;9.85;92.83;101706.25;5027769;28;20068;-61
2024/02/06 02:23:39;;;;;;;23.10;13.50;;;;;;;9.84;92.96;101701.03;5029361;28;20060;-61
2024/02/06 02:26:08;;;;;;;29.65;13.27;;;;;;;9.94;92.62;101700.97;5026926;28;20046;-61
2024/02/06 02:28:40;;;;;;;30.98;14.55;;;;;;;9.89;92.52;101687.25;5014530;28;20053;-61
2024/02/06 02:31:09;;;;;;;27.23;13.95;;;;;;;9.92;92.41;101692.19;5009656;28;20065;-61
2024/02/06 02:33:37;;;;;;;31.48;14.27;;;;;;;9.73;92.65;101691.19;5041393;28;20064;-60
2024/02/06 02:36:06;;;;;;;28.30;14.50;;;;;;;9.88;92.35;101683.69;5022839;28;20057;-61
2024/02/06 02:38:35;;;;;;;25.83;14.27;;;;;;;9.78;92.49;101682.94;5027331;28;20050;-61
2024/02/06 02:41:02;;;;;;;23.05;14.10;;;;;;;9.85;92.06;101678.72;5026136;28;20064;-61
2024/02/06 02:43:29;;;;;;;24.52;14.20;;;;;;;9.93;92.54;101678.16;5009538;28;20492;-61
2024/02/06 02:45:58;;;;;;;24.55;13.63;;;;;;;9.92;92.19;101672.94;5008646;28;20057;-61
2024/02/06 02:48:25;;;;;;;28.10;14.57;;;;;;;9.85;91.82;101670.47;5026802;28;20045;-61
2024/02/06 02:50:53;;;;;;;25.33;15.07;;;;;;;9.83;93.00;101671.88;5026094;28;20049;-61
2024/02/06 02:53:20;;;;;;;26.98;14.88;;;;;;;9.86;92.01;101668.56;5026410;28;20057;-60
2024/02/06 02:55:48;;;;;;;23.13;14.13;;;;;;;9.83;92.78;101661.69;5030474;28;20041;-60
2024/02/06 02:58:16;;;;;;;25.45;14.88;;;;;;;9.71;92.55;101663.16;5026831;28;20061;-61
2024/02/06 03:00:43;;;;;;;24.42;13.77;;;;;;;9.66;92.98;101650.25;5026398;28;20058;-61
2024/02/06 03:03:11;;;;;;;26.13;14.38;;;;;;;9.76;93.16;101663.13;5043272;28;20069;-61
2024/02/06 03:05:38;;;;;;;30.60;15.48;;;;;;;9.84;92.69;101657.00;5030500;28;20053;-60
2024/02/06 03:08:05;;;;;;;30.83;15.13;;;;;;;9.68;93.14;101650.78;5045027;28;20554;-62
2024/02/06 03:10:33;;;;;;;28.45;14.50;;;;;;;9.75;92.37;101658.72;5045217;28;20053;-60
2024/02/06 03:13:00;;;;;;;23.80;15.15;;;;;;;9.80;92.66;101647.66;5029510;28;20064;-61
2024/02/06 03:15:28;;;;;;;21.38;14.25;;;;;;;10.01;92.06;101635.41;5030108;28;20053;-61
2024/02/06 03:17:56;;;;;;;23.35;13.70;;;;;;;9.97;92.41;101648.13;5029435;28;20049;-60
2024/02/06 03:20:23;;;;;;;26.85;14.23;;;;;;;9.89;92.29;101632.19;5030021;28;20053;-62
2024/02/06 03:22:50;;;;;;;25.38;14.65;;;;;;;9.93;92.30;101628.63;4979171;28;20052;-61
2024/02/06 03:25:18;;;;;;;28.20;15.02;;;;;;;9.92;91.81;101626.16;5030886;28;20056;-61
2024/02/06 03:27:45;;;;;;;27.08;14.27;;;;;;;9.98;92.08;101616.72;5031207;28;20049;-62
2024/02/06 03:30:14;;;;;;;25.70;14.57;;;;;;;9.89;92.11;101608.28;5030694;28;20063;-60
2024/02/06 03:32:42;;;;;;;24.75;15.10;;;;;;;10.03;91.86;101606.50;5030081;28;20053;-60
2024/02/06 03:35:10;;;;;;;24.48;14.65;;;;;;;10.05;91.58;101600.72;5045066;28;20512;-61
2024/02/06 03:37:38;;;;;;;22.55;13.50;;;;;;;10.03;91.63;101602.91;5012722;28;20045;-61
2024/02/06 03:40:08;;;;;;;23.77;14.60;;;;;;;9.92;91.77;101607.69;5027383;28;20064;-62
2024/02/06 03:42:37;;;;;;;26.90;14.98;;;;;;;9.93;92.17;101606.59;5030633;28;20053;-61
2024/02/06 03:45:05;;;;;;;24.40;14.50;;;;;;;9.92;91.58;101602.19;5012310;28;20057;-61
2024/02/06 03:47:33;;;;;;;23.48;13.70;;;;;;;10.01;91.14;101599.63;5028526;28;20311;-60
2024/02/06 03:50:00;;;;;;;22.65;13.70;;;;;;;9.99;91.89;101607.34;5028526;28;20064;-61
2024/02/06 03:52:28;;;;;;;26.75;14.93;;;;;;;9.92;91.75;101598.63;5028681;28;20058;-61
2024/02/06 03:54:56;;;;;;;24.70;14.65;;;;;;;9.74;92.55;101604.81;5037666;28;20053;-61
2024/02/06 03:57:23;;;;;;;29.17;14.82;;;;;;;9.92;91.97;101601.38;5012315;28;20049;-61
2024/02/06 03:59:50;;;;;;;28.00;14.75;;;;;;;9.82;92.58;101599.53;5012336;28;20057;-60
2024/02/06 04:02:21;;;;;;;26.13;13.80;;;;;;;9.92;91.86;101601.38;5045466;28;20061;-61
2024/02/06 04:04:48;;;;;;;25.08;15.02;;;;;;;9.84;91.97;101591.81;5029744;28;20427;-61
2024/02/06 04:07:16;;;;;;;26.17;14.68;;;;;;;9.80;91.92;101600.91;5029927;28;20053;-61
2024/02/06 04:09:43;;;;;;;25.25;13.90;;;;;;;9.94;92.39;101591.72;5029725;28;20527;-62
2024/02/06 04:12:11;;;;;;;27.30;15.38;;;;;;;9.91;91.78;101586.78;5029163;28;20057;-61
2024/02/06 04:14:39;;;;;;;24.35;14.25;;;;;;;9.93;91.76;101583.75;5043516;28;20065;-61
2024/02/06 04:17:07;;;;;;;28.58;15.95;;;;;;;9.98;91.85;101592.78;5012180;28;20049;-60
2024/02/06 04:19:34;;;;;;;26.20;14.75;;;;;;;10.01;91.73;101586.69;5029689;28;20061;-62
2024/02/06 04:22:02;;;;;;;24.52;14.07;;;;;;;9.85;92.08;101589.88;5044117;28;20049;-60
2024/02/06 04:24:29;;;;;;;26.48;14.32;;;;;;;9.99;92.27;101591.66;5029809;28;20064;-61
2024/02/06 04:26:57;;;;;;;21.83;13.65;;;;;;;10.07;91.51;101587.47;5028973;28;20092;-61
2024/02/06 04:29:24;;;;;;;27.90;14.63;;;;;;;10.00;92.24;101587.00;5010009;28;20057;-61
2024/02/06 04:31:52;;;;;;;22.98;13.73;;;;;;;10.17;91.51;101588.25;5009137;28;20620;-61
2024/02/06 04:34:20;;;;;;;26.75;14.63;;;;;;;10.04;91.10;101585.31;4992482;28;20057;-61
2024/02/06 04:36:47;;;;;;;20.80;13.77;;;;;;;10.17;90.92;101599.25;5011790;28;20057;-64
2024/02/06 04:39:15;;;;;;;26.27;14.25;;;;;;;9.96;91.87;101586.75;5029314;28;20053;-60
2024/02/06 04:41:43;;;;;;;21.00;13.05;;;;;;;10.13;91.77;101597.34;5012479;28;20060;-61
2024/02/06 04:44:10;;;;;;;22.25;14.30;;;;;;;10.17;91.28;101588.25;5030483;28;20046;-61
2024/02/06 04:46:38;;;;;;;28.35;15.07;;;;;;;9.96;91.73;101588.66;5044730;28;20053;-61
2024/02/06 04:49:05;;;;;;;24.83;14.82;;;;;;;9.99;91.79;101591.66;5029182;28;20058;-61
2024/02/06 04:51:33;;;;;;;25.42;14.43;;;;;;;10.11;91.77;101592.13;5029246;28;20137;-60
2024/02/06 04:54:00;;;;;;;23.05;13.60;;;;;;;9.96;92.74;101591.41;5044317;28;20049;-61
2024/02/06 04:56:27;;;;;;;25.83;15.35;;;;;;;10.23;92.15;101584.31;5011266;28;20084;-61
2024/02/06 04:58:55;;;;;;;22.33;13.85;;;;;;;10.25;91.51;101580.47;5027645;28;20064;-62
2024/02/06 05:01:22;;;;;;;23.33;13.68;;;;;;;10.22;91.07;101575.56;5010427;28;20061;-62
2024/02/06 05:03:49;;;;;;;27.45;14.30;;;;;;;10.17;91.34;101573.66;5029772;28;20160;-60
2024/02/06 05:06:17;;;;;;;23.83;14.43;;;;;;;10.12;91.46;101576.44;5012022;28;20065;-59
2024/02/06 05:08:44;;;;;;;25.50;14.30;;;;;;;10.11;91.01;101574.81;5029800;28;20060;-60
2024/02/06 05:11:12;;;;;;;26.17;14.70;;;;;;;10.19;90.61;101571.44;5027750;28;20060;-61
2024/02/06 05:13:41;;;;;;;23.55;13.75;;;;;;;10.14;91.18;101566.81;5029181;28;20057;-61
2024/02/06 05:16:09;;;;;;;23.60;13.15;;;;;;;10.31;91.64;101555.34;5029162;28;20053;-61
2024/02/06 05:18:37;;;;;;;21.90;13.35;;;;;;;10.26;90.64;101560.91;5027001;28;20060;-61
2024/02/06 05:21:04;;;;;;;25.60;14.45;;;;;;;10.04;91.22;101557.78;5028212;28;20052;-61
2024/02/06 05:23:32;;;;;;;28.42;14.82;;;;;;;10.14;91.32;101558.56;5028718;28;20147;-60
2024/02/06 05:25:59;;;;;;;21.77;14.32;;;;;;;10.16;91.14;101548.03;5042652;28;20068;-60
2024/02/06 05:28:26;;;;;;;24.92;13.45;;;;;;;10.45;90.26;101553.53;5028348;28;20064;-61
2024/02/06 05:30:55;;;;;;;25.80;13.68;;;;;;;10.40;89.43;101548.09;5027824;28;20045;-62
2024/02/06 05:33:22;;;;;;;27.05;14.00;;;;;;;10.16;90.76;101548.03;5027851;28;20579;-61
2024/02/06 05:35:50;;;;;;;26.42;13.68;;;;;;;10.14;91.13;101554.97;5027941;28;20049;-62
2024/02/06 05:38:18;;;;;;;23.30;13.40;;;;;;;10.22;90.42;101545.28;5010018;28;20054;-65
2024/02/06 05:40:45;;;;;;;25.88;13.18;;;;;;;10.20;91.12;101549.13;5014306;28;20050;-60
2024/02/06 05:43:13;;;;;;;22.65;13.30;;;;;;;10.20;91.24;101551.88;5025512;28;20049;-60
2024/02/06 05:45:40;;;;;;;29.17;13.65;;;;;;;10.30;91.22;101539.13;5016897;28;20615;-61
2024/02/06 05:48:08;;;;;;;23.05;13.90;;;;;;;10.33;90.37;101535.75;5024993;28;20050;-62
2024/02/06 05:50:35;;;;;;;25.02;14.65;;;;;;;10.41;90.00;101530.44;5027264;28;20436;-60
2024/02/06 05:53:03;;;;;;;24.17;14.00;;;;;;;10.29;90.17;101532.78;5045743;28;20631;-65
2024/02/06 05:55:31;;;;;;;24.95;13.32;;;;;;;10.31;89.99;101533.31;5016746;28;20058;-64
2024/02/06 05:57:58;;;;;;;25.00;13.10;;;;;;;10.48;89.92;101539.16;5009902;28;20049;-65
2024/02/06 06:00:29;;;;;;;23.92;14.10;;;;;;;10.23;89.71;101518.25;5027879;28;20057;-66
2024/02/06 06:02:56;;;;;;;;;;;;;;;10.20;90.59;101526.25;5026387;28;20056;-65
2024/02/06 06:05:23;;;;;;;25.45;13.60;;;;;;;10.19;91.19;101530.13;5025998;28;19925;-65
2024/02/06 06:07:51;;;;;;;25.40;14.05;;;;;;;10.07;91.16;101519.50;5028780;28;20059;-65
2024/02/06 06:10:19;;;;;;;27.17;13.73;;;;;;;10.10;91.59;101520.88;5027733;28;20057;-67
2024/02/06 06:12:47;;;;;;;25.75;14.13;;;;;;;10.40;90.82;101522.47;5027703;28;20061;-65
2024/02/06 06:15:15;;;;;;;23.00;13.30;;;;;;;10.38;90.13;101513.69;5042969;28;20077;-65
2024/02/06 06:17:42;;;;;;;29.67;14.63;;;;;;;10.24;90.35;101516.31;5019272;28;20061;-65
2024/02/06 06:20:10;;;;;;;25.90;13.60;;;;;;;10.20;90.75;101516.06;5026960;28;20050;-65
2024/02/06 06:22:37;;;;;;;24.40;13.35;;;;;;;10.45;90.29;101514.97;5027240;28;20049;-66
2024/02/06 06:25:05;;;;;;;23.60;14.07;;;;;;;10.46;89.49;101513.06;5026334;28;20052;-65
2024/02/06 06:27:33;;;;;;;24.80;13.55;;;;;;;10.30;89.77;101514.34;5010079;28;20084;-65
2024/02/06 06:30:00;;;;;;;23.42;12.93;;;;;;;10.29;90.61;101515.47;5028484;28;20061;-67
2024/02/06 06:32:28;;;;;;;22.63;13.85;;;;;;;10.36;90.74;101516.72;5043440;28;20063;-66
2024/02/06 06:34:55;;;;;;;27.00;13.52;;;;;;;10.46;90.10;101516.59;5027646;28;20496;-65
2024/02/06 06:37:23;;;;;;;24.58;11.93;;;;;;;10.72;89.77;101517.94;5027754;28;20597;-66
2024/02/06 06:39:50;;;;;;;25.70;13.93;;;;;;;10.45;89.13;101522.41;5043222;28;20069;-64
2024/02/06 06:42:18;;;;;;;20.58;12.50;;;;;;;10.46;89.40;101513.84;5028569;28;20548;-64
2024/02/06 06:44:45;;;;;;;28.92;13.68;;;;;;;10.48;89.24;101513.59;5022749;28;20053;-65
2024/02/06 06:47:12;;;;;;;25.95;14.02;;;;;;;10.50;89.47;101509.41;5035462;28;20770;-61
2024/02/06 06:49:40;;;;;;;24.33;12.93;;;;;;;10.73;88.92;101507.75;5013493;28;20871;-62
2024/02/06 06:52:08;;;;;;;25.08;13.48;;;;;;;10.61;88.43;101501.84;5028481;28;20638;-61
2024/02/06 06:54:35;;;;;;;27.85;13.20;;;;;;;10.34;89.73;101510.69;5046569;28;20053;-62
2024/02/06 06:57:03;;;;;;;23.60;12.95;;;;;;;10.44;90.29;101509.75;5062362;28;20091;-62
2024/02/06 06:59:31;;;;;;;24.95;12.75;;;;;;;10.55;89.97;101500.28;5019320;28;20057;-62
2024/02/06 07:01:59;;;;;;;22.90;12.95;;;;;;;10.46;89.28;101513.06;5044995;28;20725;-61
2024/02/06 07:04:27;;;;;;;23.50;12.80;;;;;;;10.54;89.45;101504.13;5038585;28;20057;-61
2024/02/06 07:06:55;;;;;;;25.98;13.00;;;;;;;10.59;88.83;101509.56;5027878;28;20053;-61
2024/02/06 07:09:24;;;;;;;25.60;12.82;;;;;;;10.56;88.43;101499.97;5010111;28;20587;-61
2024/02/06 07:11:52;;;;;;;24.52;13.07;;;;;;;10.73;87.91;101508.56;5015090;28;20050;-60
2024/02/06 07:14:19;;;;;;;25.73;12.50;;;;;;;10.62;88.33;101511.72;5012890;28;20163;-60
2024/02/06 07:16:47;;;;;;;25.05;12.07;;;;;;;10.71;87.09;101513.56;5009143;28;20056;-61
2024/02/06 07:19:17;;;;;;;25.33;13.05;;;;;;;10.52;88.20;101517.38;5041534;28;20060;-61
2024/02/06 07:21:57;;;;;;;24.88;12.35;;;;;;;10.49;87.96;101501.44;5008993;28;20065;-61
2024/02/06 07:24:25;;;;;;;23.20;12.15;;;;;;;10.57;88.36;101509.88;5028070;28;20056;-62
2024/02/06 07:26:53;;;;;;;25.40;12.80;;;;;;;10.54;88.74;101507.72;5027648;28;20053;-63
2024/02/06 07:29:21;;;;;;;21.10;11.60;;;;;;;10.48;88.37;101506.13;5042524;28;20543;-62
2024/02/06 07:31:48;;;;;;;26.77;12.27;;;;;;;10.60;88.08;101501.00;5009730;28;20068;-61
2024/02/06 07:34:18;;;;;;;24.67;12.77;;;;;;;10.83;87.74;101511.19;5027118;28;20060;-61
2024/02/06 07:36:46;;;;;;;27.05;12.77;;;;;;;10.68;86.54;101503.13;5025986;28;20049;-62
2024/02/06 07:39:14;;;;;;;21.88;11.65;;;;;;;10.79;87.14;101528.63;5022553;28;20049;-61
2024/02/06 07:41:42;;;;;;;19.80;11.25;;;;;;;10.82;86.26;101526.09;5005921;28;20061;-61
2024/02/06 07:44:12;;;;;;;20.13;11.57;;;;;;;10.63;86.51;101525.25;5019363;28;20120;-61
2024/02/06 07:46:41;;;;;;;24.67;11.68;;;;;;;10.68;87.40;101533.44;5015447;28;20411;-61
2024/02/06 07:49:12;;;;;;;23.75;12.02;;;;;;;10.67;86.98;101531.78;5046566;28;20052;-63
2024/02/06 07:51:41;;;;;;;23.35;12.27;;;;;;;10.66;86.63;101543.09;5051128;28;20057;-66
2024/02/06 07:54:09;;;;;;;24.20;12.40;;;;;;;10.59;86.49;101548.97;5050075;28;20056;-65
2024/02/06 07:56:37;;;;;;;19.98;11.05;;;;;;;10.70;87.05;101544.16;5032477;28;20615;-65
2024/02/06 07:59:05;;;;;;;22.10;11.68;;;;;;;10.90;85.47;101554.91;5033200;28;20045;-64
2024/02/06 08:01:35;;;;;;;23.75;10.63;;;;;;;10.91;85.87;101549.09;5024225;28;20076;-62
2024/02/06 08:04:03;;;;;;;29.58;11.25;;;;;;;10.89;85.46;101558.81;5012134;28;20064;-61
2024/02/06 08:06:32;;;;;;;21.55;10.68;;;;;;;10.95;85.44;101552.91;5030808;28;20057;-61
2024/02/06 08:09:03;;;;;;;20.25;10.23;;;;;;;11.02;84.39;101564.41;5030885;28;20062;-61
2024/02/06 08:11:31;;;;;;;21.17;10.75;;;;;;;10.80;83.87;101553.13;5028981;28;20053;-60
2024/02/06 08:14:00;;;;;;;23.52;11.10;;;;;;;10.82;84.74;101556.41;5030525;28;20763;-62
2024/02/06 08:16:28;;;;;;;23.08;10.38;;;;;;;10.85;84.61;101558.56;5045711;28;20682;-62
2024/02/06 08:18:56;;;;;;;21.95;10.52;;;;;;;10.96;84.29;101568.38;5012385;28;20055;-63
2024/02/06 08:21:23;;;;;;;28.52;10.55;;;;;;;11.07;83.87;101567.09;5029990;28;20054;-62
2024/02/06 08:23:51;;;;;;;20.90;10.43;;;;;;;10.97;83.78;101567.22;5046470;28;20044;-61
2024/02/06 08:26:18;;;;;;;24.95;10.43;;;;;;;11.16;83.56;101568.06;5031522;28;20488;-61
2024/02/06 08:28:47;;;;;;;26.00;10.00;;;;;;;11.16;81.67;101562.56;5033948;28;20046;-61
2024/02/06 08:31:15;;;;;;;31.23;10.60;;;;;;;10.95;82.27;101557.59;5010634;28;20054;-63
2024/02/06 08:33:44;;;;;;;20.10;9.98;;;;;;;11.01;82.50;101561.94;4998644;28;20492;-62
2024/02/06 08:36:13;;;;;;;21.02;10.35;;;;;;;10.93;82.89;101566.16;5020834;28;20068;-62
2024/02/06 08:38:50;;;;;;;29.55;10.73;;;;;;;11.19;81.83;101566.69;5007150;28;20050;-64
2024/02/06 08:41:18;;;;;;;25.08;10.27;;;;;;;11.22;82.16;101561.38;4990903;28;20517;-60
2024/02/06 08:43:45;;;;;;;32.72;12.90;;;;;;;11.26;81.30;101553.34;5005439;28;20058;-62
2024/02/06 08:46:22;;;;;;;22.08;10.40;;;;;;;11.08;82.13;101560.47;4992247;28;20065;-61
2024/02/06 08:48:52;;;;;;;20.83;9.98;;;;;;;11.63;80.31;101552.50;4992848;28;20066;-61
2024/02/06 08:51:43;;;;;;;20.48;9.48;;;;;;;11.19;81.37;101558.41;5000012;28;20084;-65
2024/02/06 08:54:15;;;;;;;25.20;10.25;;;;;;;11.16;81.35;101547.94;5012121;28;20069;-65
2024/02/06 08:56:43;;;;;;;25.45;10.63;;;;;;;11.07;82.46;101558.81;5015220;28;20061;-62
2024/02/06 08:59:11;;;;;;;21.42;9.38;;;;;;;11.14;81.92;101542.72;5030486;28;20046;-62
2024/02/06 09:01:39;;;;;;;19.35;9.65;;;;;;;11.20;81.31;101547.06;5044697;28;20057;-62
2024/02/06 09:04:12;;;;;;;22.83;9.45;;;;;;;11.23;81.25;101542.88;5029477;28;20041;-61
2024/02/06 09:06:45;;;;;;;26.10;9.23;;;;;;;11.12;80.77;101544.16;5024072;28;20046;-61
2024/02/06 09:09:14;;;;;;;21.27;9.38;;;;;;;11.10;81.34;101549.16;5011336;28;20527;-60
2024/02/06 09:11:43;;;;;;;17.33;9.40;;;;;;;11.21;81.22;101545.13;4991895;28;20695;-61
2024/02/06 09:14:11;;;;;;;18.13;9.45;;;;;;;11.28;80.57;101540.88;5010580;28;20053;-63
2024/02/06 09:16:39;;;;;;;22.25;9.75;;;;;;;11.56;80.36;101549.31;5043760;28;20056;-61
2024/02/06 09:19:08;;;;;;;20.65;8.05;;;;;;;11.59;78.32;101545.94;5029595;28;20061;-61
2024/02/06 09:21:36;;;;;;;21.58;9.48;;;;;;;11.56;79.29;101554.84;5028705;28;20048;-61
2024/02/06 09:24:07;;;;;;;22.55;8.75;;;;;;;11.35;78.97;101541.31;5028893;28;20057;-61
2024/02/06 09:26:34;;;;;;;21.83;8.98;;;;;;;11.60;78.91;101537.38;5017286;28;20084;-61
2024/02/06 09:29:06;;;;;;;22.20;8.90;;;;;;;11.33;79.53;101543.56;5022141;28;20050;-61
2024/02/06 09:31:34;;;;;;;21.20;8.93;;;;;;;11.40;79.20;101545.13;5024240;28;20636;-61
2024/02/06 09:34:02;;;;;;;20.35;8.93;;;;;;;11.43;79.90;101545.34;5016925;28;20061;-61
2024/02/06 09:36:30;;;;;;;23.42;9.10;;;;;;;11.41;79.33;101535.72;5029782;28;20065;-60
2024/02/06 09:38:58;;;;;;;17.95;8.75;;;;;;;11.82;77.88;101528.50;5028771;28;20049;-61
2024/02/06 09:41:26;;;;;;;20.40;8.35;;;;;;;11.79;77.39;101523.56;4994219;28;20060;-61
2024/02/06 09:43:53;;;;;;;22.50;8.55;;;;;;;12.01;76.50;101509.94;5029109;28;20053;-61
2024/02/06 09:46:22;;;;;;;19.10;8.20;;;;;;;11.74;77.23;101513.44;5010303;28;20068;-62
2024/02/06 09:48:49;;;;;;;24.90;9.35;;;;;;;11.74;77.25;101518.13;5026255;28;20059;-61
2024/02/06 09:51:16;;;;;;;22.15;9.00;;;;;;;11.78;76.88;101516.41;5027369;28;20057;-61
2024/02/06 09:53:44;;;;;;;26.58;8.60;;;;;;;11.88;76.55;101500.50;5028326;28;20801;-61
2024/02/06 09:56:12;;;;;;;16.38;7.78;;;;;;;12.02;76.25;101503.28;5013360;28;20632;-61
2024/02/06 09:58:40;;;;;;;19.73;7.95;;;;;;;12.22;74.58;101500.94;5010709;28;20053;-62
2024/02/06 10:01:12;;;;;;;22.15;8.73;;;;;;;11.98;75.06;101499.47;5043551;28;20057;-61
2024/02/06 10:03:44;;;;;;;20.30;7.72;;;;;;;12.13;75.75;101496.44;5042684;28;20053;-61
2024/02/06 10:06:11;;;;;;;25.40;8.20;;;;;;;12.17;74.97;101502.97;5028296;28;20057;-61
2024/02/06 10:08:39;;;;;;;15.57;7.82;;;;;;;12.14;74.92;101507.19;5026914;28;20515;-60
2024/02/06 10:11:06;;;;;;;26.60;7.32;;;;;;;12.31;73.96;101504.66;5043250;28;20085;-60
2024/02/06 10:13:34;;;;;;;21.13;7.90;;;;;;;12.37;73.59;101505.38;5025971;28;20057;-61
2024/02/06 10:16:01;;;;;;;20.65;8.27;;;;;;;12.37;73.71;101503.44;5010299;28;20049;-61
2024/02/06 10:18:29;;;;;;;19.00;7.97;;;;;;;12.30;73.79;101510.47;5010390;28;20057;-61
2024/02/06 10:20:56;;;;;;;22.23;8.68;;;;;;;12.26;74.03;101514.97;5028084;28;20195;-62
2024/02/06 10:23:24;;;;;;;17.80;7.75;;;;;;;12.29;74.71;101512.41;5010494;28;20064;-61
2024/02/06 10:26:02;;;;;;;15.77;7.93;;;;;;;12.41;73.71;101509.16;5027068;28;20049;-62
2024/02/06 10:28:29;;;;;;;24.02;7.05;;;;;;;12.50;73.94;101507.31;5027187;28;20167;-61
2024/02/06 10:30:57;;;;;;;18.63;7.35;;;;;;;12.83;72.99;101500.53;5027584;28;20053;-62
2024/02/06 10:33:26;;;;;;;20.45;6.43;;;;;;;12.77;72.31;101489.88;5034843;28;20140;-61
2024/02/06 10:36:01;;;;;;;24.70;7.45;;;;;;;12.81;71.62;101488.16;5048267;28;20052;-61
2024/02/06 10:38:29;;;;;;;20.33;6.60;;;;;;;12.63;73.12;101478.84;5045951;28;20056;-63
2024/02/06 10:40:57;;;;;;;18.10;7.10;;;;;;;12.81;71.36;101483.44;5047271;28;20082;-62
2024/02/06 10:43:43;;;;;;;14.50;6.20;;;;;;;12.81;71.54;101483.44;5043097;28;20060;-61
2024/02/06 10:46:20;;;;;;;19.65;7.30;;;;;;;12.71;71.90;101471.78;5033066;28;20055;-61
2024/02/06 10:48:52;;;;;;;20.92;7.05;;;;;;;12.82;72.04;101489.78;4999625;28;20053;-60
2024/02/06 10:51:23;;;;;;;15.88;6.90;;;;;;;13.03;71.08;101488.22;5042031;28;20049;-61
2024/02/06 10:53:57;;;;;;;20.80;7.13;;;;;;;12.96;70.10;101494.16;5010831;28;20172;-62
2024/02/06 10:56:25;;;;;;;22.67;6.78;;;;;;;12.89;70.32;101473.59;5059930;28;20051;-61
2024/02/06 10:59:01;;;;;;;17.88;6.80;;;;;;;12.80;70.89;101475.44;5027416;28;20048;-64
2024/02/06 11:01:34;;;;;;;29.73;6.70;;;;;;;12.96;70.03;101465.69;5026557;28;20049;-65
2024/02/06 11:04:05;;;;;;;17.25;6.25;;;;;;;13.15;70.63;101466.38;5009724;28;20133;-64
2024/02/06 11:07:05;;;;;;;21.55;6.65;;;;;;;13.19;69.10;101465.47;5025634;28;20079;-65
2024/02/06 11:09:38;;;;;;;20.20;6.85;;;;;;;13.17;69.40;101475.19;5010383;28;20060;-65
2024/02/06 11:12:07;;;;;;;17.55;6.82;;;;;;;13.29;69.70;101464.38;5027374;28;20061;-66
2024/02/06 11:14:37;;;;;;;24.98;9.38;;;;;;;13.15;69.35;101458.91;5024163;28;20614;-65
2024/02/06 11:17:06;;;;;;;;;;;;;;;13.29;69.91;101454.16;5032208;28;20456;-64
2024/02/06 11:19:48;;;;;;;23.05;11.43;;;;;;;13.15;69.90;101463.63;5061568;28;19924;-64